sensor_id;sensor_type;location;lat;lon;timestamp;P1;durP1;ratioP1;P2;durP2;ratioP2
67074;SDS011;53990;50.334;18.640;2023-04-25T00:01:41;14.90;;;11.00;;
67074;SDS011;53990;50.334;18.640;2023-04-25T00:04:08;16.30;;;11.40;;
67074;SDS011;53990;50.334;18.640;2023-04-25T00:06:36;17.20;;;11.60;;
67074;SDS011;53990;50.334;18.640;2023-04-25T00:09:04;16.20;;;11.50;;
67074;SDS011;53990;50.334;18.640;2023-04-25T00:11:34;18.30;;;12.50;;
67074;SDS011;53990;50.334;18.640;2023-04-25T00:14:01;17.10;;;12.90;;
67074;SDS011;53990;50.334;18.640;2023-04-25T00:16:29;16.40;;;12.50;;
67074;SDS011;53990;50.334;18.640;2023-04-25T00:19:01;19.00;;;12.70;;
67074;SDS011;53990;50.334;18.640;2023-04-25T00:21:30;16.00;;;11.80;;
67074;SDS011;53990;50.334;18.640;2023-04-25T00:23:58;16.50;;;12.70;;
67074;SDS011;53990;50.334;18.640;2023-04-25T00:26:49;16.40;;;11.70;;
67074;SDS011;53990;50.334;18.640;2023-04-25T00:29:16;16.20;;;12.10;;
67074;SDS011;53990;50.334;18.640;2023-04-25T00:31:43;15.40;;;10.30;;
67074;SDS011;53990;50.334;18.640;2023-04-25T00:34:11;13.40;;;9.40;;
67074;SDS011;53990;50.334;18.640;2023-04-25T00:36:38;12.30;;;7.50;;
67074;SDS011;53990;50.334;18.640;2023-04-25T00:39:05;10.50;;;7.00;;
67074;SDS011;53990;50.334;18.640;2023-04-25T00:41:33;11.70;;;6.00;;
67074;SDS011;53990;50.334;18.640;2023-04-25T00:44:01;6.60;;;5.00;;
67074;SDS011;53990;50.334;18.640;2023-04-25T00:46:28;6.80;;;4.70;;
67074;SDS011;53990;50.334;18.640;2023-04-25T00:48:56;6.40;;;4.80;;
67074;SDS011;53990;50.334;18.640;2023-04-25T00:51:24;8.20;;;4.80;;
67074;SDS011;53990;50.334;18.640;2023-04-25T00:53:55;7.80;;;5.40;;
67074;SDS011;53990;50.334;18.640;2023-04-25T00:56:22;8.70;;;5.30;;
67074;SDS011;53990;50.334;18.640;2023-04-25T00:58:50;7.70;;;5.00;;
67074;SDS011;53990;50.334;18.640;2023-04-25T01:01:20;7.40;;;5.10;;
67074;SDS011;53990;50.334;18.640;2023-04-25T01:03:49;6.30;;;4.90;;
67074;SDS011;53990;50.334;18.640;2023-04-25T01:06:17;7.30;;;5.40;;
67074;SDS011;53990;50.334;18.640;2023-04-25T01:08:44;7.10;;;4.90;;
67074;SDS011;53990;50.334;18.640;2023-04-25T01:11:11;7.90;;;5.30;;
67074;SDS011;53990;50.334;18.640;2023-04-25T01:13:38;10.10;;;6.30;;
67074;SDS011;53990;50.334;18.640;2023-04-25T01:16:06;8.10;;;5.60;;
67074;SDS011;53990;50.334;18.640;2023-04-25T01:18:34;7.40;;;5.90;;
67074;SDS011;53990;50.334;18.640;2023-04-25T01:21:07;11.90;;;5.50;;
67074;SDS011;53990;50.334;18.640;2023-04-25T01:23:37;9.60;;;5.90;;
67074;SDS011;53990;50.334;18.640;2023-04-25T01:26:06;9.10;;;5.80;;
67074;SDS011;53990;50.334;18.640;2023-04-25T01:28:35;9.70;;;5.50;;
67074;SDS011;53990;50.334;18.640;2023-04-25T01:31:04;8.50;;;4.90;;
67074;SDS011;53990;50.334;18.640;2023-04-25T01:33:32;7.80;;;4.70;;
67074;SDS011;53990;50.334;18.640;2023-04-25T01:36:00;7.10;;;4.60;;
67074;SDS011;53990;50.334;18.640;2023-04-25T01:38:27;6.50;;;4.60;;
67074;SDS011;53990;50.334;18.640;2023-04-25T01:40:54;9.30;;;6.10;;
67074;SDS011;53990;50.334;18.640;2023-04-25T01:43:22;7.50;;;4.80;;
67074;SDS011;53990;50.334;18.640;2023-04-25T01:45:50;6.60;;;4.50;;
67074;SDS011;53990;50.334;18.640;2023-04-25T01:48:18;5.60;;;3.70;;
67074;SDS011;53990;50.334;18.640;2023-04-25T01:50:45;5.90;;;4.10;;
67074;SDS011;53990;50.334;18.640;2023-04-25T01:53:13;4.60;;;3.60;;
67074;SDS011;53990;50.334;18.640;2023-04-25T01:55:41;6.30;;;3.60;;
67074;SDS011;53990;50.334;18.640;2023-04-25T01:58:09;6.50;;;3.00;;
67074;SDS011;53990;50.334;18.640;2023-04-25T02:00:36;6.00;;;3.00;;
67074;SDS011;53990;50.334;18.640;2023-04-25T02:03:06;3.80;;;2.80;;
67074;SDS011;53990;50.334;18.640;2023-04-25T02:05:38;6.40;;;3.10;;
67074;SDS011;53990;50.334;18.640;2023-04-25T02:08:06;4.60;;;2.90;;
67074;SDS011;53990;50.334;18.640;2023-04-25T02:10:35;3.70;;;2.70;;
67074;SDS011;53990;50.334;18.640;2023-04-25T02:13:02;5.40;;;2.70;;
67074;SDS011;53990;50.334;18.640;2023-04-25T02:15:31;5.70;;;2.80;;
67074;SDS011;53990;50.334;18.640;2023-04-25T02:17:58;3.40;;;2.40;;
67074;SDS011;53990;50.334;18.640;2023-04-25T02:20:27;3.70;;;2.40;;
67074;SDS011;53990;50.334;18.640;2023-04-25T02:22:55;5.90;;;2.70;;
67074;SDS011;53990;50.334;18.640;2023-04-25T02:25:23;4.20;;;2.40;;
67074;SDS011;53990;50.334;18.640;2023-04-25T02:27:50;3.70;;;2.00;;
67074;SDS011;53990;50.334;18.640;2023-04-25T02:30:18;4.40;;;2.30;;
67074;SDS011;53990;50.334;18.640;2023-04-25T02:32:46;3.90;;;2.20;;
67074;SDS011;53990;50.334;18.640;2023-04-25T02:35:13;3.30;;;2.40;;
67074;SDS011;53990;50.334;18.640;2023-04-25T02:37:41;5.60;;;2.50;;
67074;SDS011;53990;50.334;18.640;2023-04-25T02:40:09;4.30;;;2.30;;
67074;SDS011;53990;50.334;18.640;2023-04-25T02:42:36;3.40;;;2.40;;
67074;SDS011;53990;50.334;18.640;2023-04-25T02:45:04;4.00;;;2.50;;
67074;SDS011;53990;50.334;18.640;2023-04-25T02:47:31;3.70;;;2.50;;
67074;SDS011;53990;50.334;18.640;2023-04-25T02:49:58;3.70;;;2.50;;
67074;SDS011;53990;50.334;18.640;2023-04-25T02:52:26;3.00;;;2.20;;
67074;SDS011;53990;50.334;18.640;2023-04-25T02:54:53;3.80;;;2.60;;
67074;SDS011;53990;50.334;18.640;2023-04-25T02:57:21;5.10;;;2.90;;
67074;SDS011;53990;50.334;18.640;2023-04-25T02:59:48;5.10;;;2.60;;
67074;SDS011;53990;50.334;18.640;2023-04-25T03:02:15;4.20;;;2.70;;
67074;SDS011;53990;50.334;18.640;2023-04-25T03:04:42;4.00;;;2.50;;
67074;SDS011;53990;50.334;18.640;2023-04-25T03:07:10;5.00;;;2.50;;
67074;SDS011;53990;50.334;18.640;2023-04-25T03:09:38;4.50;;;2.90;;
67074;SDS011;53990;50.334;18.640;2023-04-25T03:12:05;4.60;;;2.80;;
67074;SDS011;53990;50.334;18.640;2023-04-25T03:14:33;4.00;;;2.80;;
67074;SDS011;53990;50.334;18.640;2023-04-25T03:17:00;6.10;;;3.20;;
67074;SDS011;53990;50.334;18.640;2023-04-25T03:19:27;4.60;;;2.90;;
67074;SDS011;53990;50.334;18.640;2023-04-25T03:21:54;4.00;;;2.90;;
67074;SDS011;53990;50.334;18.640;2023-04-25T03:24:21;5.20;;;2.50;;
67074;SDS011;53990;50.334;18.640;2023-04-25T03:26:49;4.60;;;2.50;;
67074;SDS011;53990;50.334;18.640;2023-04-25T03:29:16;3.40;;;2.50;;
67074;SDS011;53990;50.334;18.640;2023-04-25T03:31:43;3.70;;;2.70;;
67074;SDS011;53990;50.334;18.640;2023-04-25T03:34:11;3.90;;;2.70;;
67074;SDS011;53990;50.334;18.640;2023-04-25T03:36:38;3.60;;;2.60;;
67074;SDS011;53990;50.334;18.640;2023-04-25T03:39:05;3.30;;;2.50;;
67074;SDS011;53990;50.334;18.640;2023-04-25T03:41:33;4.60;;;2.70;;
67074;SDS011;53990;50.334;18.640;2023-04-25T03:44:00;4.80;;;2.50;;
67074;SDS011;53990;50.334;18.640;2023-04-25T03:46:28;3.50;;;2.70;;
67074;SDS011;53990;50.334;18.640;2023-04-25T03:48:55;3.50;;;2.60;;
67074;SDS011;53990;50.334;18.640;2023-04-25T03:51:22;3.60;;;2.70;;
67074;SDS011;53990;50.334;18.640;2023-04-25T03:53:49;4.00;;;2.60;;
67074;SDS011;53990;50.334;18.640;2023-04-25T03:56:17;3.80;;;2.40;;
67074;SDS011;53990;50.334;18.640;2023-04-25T03:58:44;3.40;;;2.80;;
67074;SDS011;53990;50.334;18.640;2023-04-25T04:01:11;4.80;;;3.50;;
67074;SDS011;53990;50.334;18.640;2023-04-25T04:03:39;5.20;;;3.10;;
67074;SDS011;53990;50.334;18.640;2023-04-25T04:06:07;4.30;;;3.00;;
67074;SDS011;53990;50.334;18.640;2023-04-25T04:08:34;3.90;;;3.00;;
67074;SDS011;53990;50.334;18.640;2023-04-25T04:11:02;4.50;;;3.20;;
67074;SDS011;53990;50.334;18.640;2023-04-25T04:13:29;4.40;;;3.20;;
67074;SDS011;53990;50.334;18.640;2023-04-25T04:15:57;5.20;;;3.30;;
67074;SDS011;53990;50.334;18.640;2023-04-25T04:18:24;4.80;;;3.30;;
67074;SDS011;53990;50.334;18.640;2023-04-25T04:20:52;5.20;;;3.70;;
67074;SDS011;53990;50.334;18.640;2023-04-25T04:23:19;5.70;;;3.60;;
67074;SDS011;53990;50.334;18.640;2023-04-25T04:25:47;6.60;;;3.60;;
67074;SDS011;53990;50.334;18.640;2023-04-25T04:28:15;5.80;;;3.70;;
67074;SDS011;53990;50.334;18.640;2023-04-25T04:30:43;5.50;;;3.90;;
67074;SDS011;53990;50.334;18.640;2023-04-25T04:33:14;5.50;;;4.70;;
67074;SDS011;53990;50.334;18.640;2023-04-25T04:35:46;6.90;;;4.30;;
67074;SDS011;53990;50.334;18.640;2023-04-25T04:38:13;8.10;;;4.10;;
67074;SDS011;53990;50.334;18.640;2023-04-25T04:40:42;9.00;;;4.70;;
67074;SDS011;53990;50.334;18.640;2023-04-25T04:43:13;10.30;;;5.10;;
67074;SDS011;53990;50.334;18.640;2023-04-25T04:45:44;8.50;;;4.80;;
67074;SDS011;53990;50.334;18.640;2023-04-25T04:48:11;8.60;;;4.80;;
67074;SDS011;53990;50.334;18.640;2023-04-25T04:50:42;8.90;;;5.50;;
67074;SDS011;53990;50.334;18.640;2023-04-25T04:53:12;10.30;;;5.50;;
67074;SDS011;53990;50.334;18.640;2023-04-25T04:55:39;9.00;;;5.70;;
67074;SDS011;53990;50.334;18.640;2023-04-25T04:58:08;10.80;;;5.50;;
67074;SDS011;53990;50.334;18.640;2023-04-25T05:00:35;6.70;;;4.90;;
67074;SDS011;53990;50.334;18.640;2023-04-25T05:03:02;6.40;;;4.90;;
67074;SDS011;53990;50.334;18.640;2023-04-25T05:05:30;8.00;;;4.60;;
67074;SDS011;53990;50.334;18.640;2023-04-25T05:07:57;9.50;;;6.20;;
67074;SDS011;53990;50.334;18.640;2023-04-25T05:10:25;10.00;;;5.90;;
67074;SDS011;53990;50.334;18.640;2023-04-25T05:12:53;9.60;;;6.40;;
67074;SDS011;53990;50.334;18.640;2023-04-25T05:15:20;8.90;;;6.00;;
67074;SDS011;53990;50.334;18.640;2023-04-25T05:17:47;7.90;;;5.80;;
67074;SDS011;53990;50.334;18.640;2023-04-25T05:20:14;12.80;;;7.60;;
67074;SDS011;53990;50.334;18.640;2023-04-25T05:22:42;10.60;;;7.50;;
67074;SDS011;53990;50.334;18.640;2023-04-25T05:25:09;13.80;;;8.20;;
67074;SDS011;53990;50.334;18.640;2023-04-25T05:27:37;10.90;;;7.10;;
67074;SDS011;53990;50.334;18.640;2023-04-25T05:30:05;11.80;;;7.60;;
67074;SDS011;53990;50.334;18.640;2023-04-25T05:32:32;10.50;;;7.00;;
67074;SDS011;53990;50.334;18.640;2023-04-25T05:34:59;10.30;;;7.40;;
67074;SDS011;53990;50.334;18.640;2023-04-25T05:37:27;14.40;;;9.60;;
67074;SDS011;53990;50.334;18.640;2023-04-25T05:39:54;10.00;;;7.80;;
67074;SDS011;53990;50.334;18.640;2023-04-25T05:42:21;9.00;;;7.00;;
67074;SDS011;53990;50.334;18.640;2023-04-25T05:44:49;12.40;;;8.30;;
67074;SDS011;53990;50.334;18.640;2023-04-25T05:47:16;14.20;;;7.90;;
67074;SDS011;53990;50.334;18.640;2023-04-25T05:49:43;11.90;;;7.80;;
67074;SDS011;53990;50.334;18.640;2023-04-25T05:52:10;11.00;;;7.40;;
67074;SDS011;53990;50.334;18.640;2023-04-25T05:54:37;10.20;;;7.40;;
67074;SDS011;53990;50.334;18.640;2023-04-25T05:57:05;10.80;;;7.80;;
67074;SDS011;53990;50.334;18.640;2023-04-25T05:59:33;11.90;;;7.60;;
67074;SDS011;53990;50.334;18.640;2023-04-25T06:02:00;10.50;;;7.50;;
67074;SDS011;53990;50.334;18.640;2023-04-25T06:04:27;9.70;;;7.10;;
67074;SDS011;53990;50.334;18.640;2023-04-25T06:06:55;11.10;;;7.40;;
67074;SDS011;53990;50.334;18.640;2023-04-25T06:09:22;10.70;;;8.10;;
67074;SDS011;53990;50.334;18.640;2023-04-25T06:11:49;10.50;;;7.70;;
67074;SDS011;53990;50.334;18.640;2023-04-25T06:14:16;11.80;;;7.70;;
67074;SDS011;53990;50.334;18.640;2023-04-25T06:16:43;11.10;;;7.40;;
67074;SDS011;53990;50.334;18.640;2023-04-25T06:19:11;12.70;;;8.20;;
67074;SDS011;53990;50.334;18.640;2023-04-25T06:21:38;11.80;;;8.20;;
67074;SDS011;53990;50.334;18.640;2023-04-25T06:24:05;9.80;;;7.30;;
67074;SDS011;53990;50.334;18.640;2023-04-25T06:26:32;10.10;;;7.70;;
67074;SDS011;53990;50.334;18.640;2023-04-25T06:29:00;11.50;;;8.70;;
67074;SDS011;53990;50.334;18.640;2023-04-25T06:31:27;12.40;;;8.40;;
67074;SDS011;53990;50.334;18.640;2023-04-25T06:33:55;13.20;;;8.60;;
67074;SDS011;53990;50.334;18.640;2023-04-25T06:36:23;13.20;;;8.00;;
67074;SDS011;53990;50.334;18.640;2023-04-25T06:38:52;14.80;;;8.40;;
67074;SDS011;53990;50.334;18.640;2023-04-25T06:41:19;12.00;;;8.30;;
67074;SDS011;53990;50.334;18.640;2023-04-25T06:43:47;12.00;;;8.50;;
67074;SDS011;53990;50.334;18.640;2023-04-25T06:46:14;13.30;;;8.40;;
67074;SDS011;53990;50.334;18.640;2023-04-25T06:48:41;10.40;;;7.80;;
67074;SDS011;53990;50.334;18.640;2023-04-25T06:51:08;10.50;;;8.20;;
67074;SDS011;53990;50.334;18.640;2023-04-25T06:53:35;12.50;;;8.30;;
67074;SDS011;53990;50.334;18.640;2023-04-25T06:56:03;12.20;;;7.80;;
67074;SDS011;53990;50.334;18.640;2023-04-25T06:58:31;14.10;;;8.20;;
67074;SDS011;53990;50.334;18.640;2023-04-25T07:00:58;11.80;;;8.50;;
67074;SDS011;53990;50.334;18.640;2023-04-25T07:03:26;10.50;;;8.00;;
67074;SDS011;53990;50.334;18.640;2023-04-25T07:05:53;13.20;;;9.10;;
67074;SDS011;53990;50.334;18.640;2023-04-25T07:08:20;13.50;;;8.80;;
67074;SDS011;53990;50.334;18.640;2023-04-25T07:10:48;12.60;;;8.80;;
67074;SDS011;53990;50.334;18.640;2023-04-25T07:13:15;12.60;;;9.20;;
67074;SDS011;53990;50.334;18.640;2023-04-25T07:15:43;14.90;;;9.20;;
67074;SDS011;53990;50.334;18.640;2023-04-25T07:18:10;11.80;;;10.40;;
67074;SDS011;53990;50.334;18.640;2023-04-25T07:20:38;11.80;;;8.80;;
67074;SDS011;53990;50.334;18.640;2023-04-25T07:23:05;12.60;;;9.00;;
67074;SDS011;53990;50.334;18.640;2023-04-25T07:25:32;18.30;;;10.40;;
67074;SDS011;53990;50.334;18.640;2023-04-25T07:27:59;12.00;;;8.30;;
67074;SDS011;53990;50.334;18.640;2023-04-25T07:30:27;10.70;;;8.40;;
67074;SDS011;53990;50.334;18.640;2023-04-25T07:32:54;12.40;;;8.40;;
67074;SDS011;53990;50.334;18.640;2023-04-25T07:35:22;11.80;;;8.70;;
67074;SDS011;53990;50.334;18.640;2023-04-25T07:37:49;10.70;;;8.30;;
67074;SDS011;53990;50.334;18.640;2023-04-25T07:40:17;16.40;;;9.90;;
67074;SDS011;53990;50.334;18.640;2023-04-25T07:42:44;13.80;;;8.50;;
67074;SDS011;53990;50.334;18.640;2023-04-25T07:45:12;14.30;;;9.50;;
67074;SDS011;53990;50.334;18.640;2023-04-25T07:47:39;15.70;;;9.50;;
67074;SDS011;53990;50.334;18.640;2023-04-25T07:50:06;12.60;;;8.30;;
67074;SDS011;53990;50.334;18.640;2023-04-25T07:52:34;11.10;;;8.10;;
67074;SDS011;53990;50.334;18.640;2023-04-25T07:55:01;10.90;;;8.60;;
67074;SDS011;53990;50.334;18.640;2023-04-25T07:57:29;10.20;;;8.20;;
67074;SDS011;53990;50.334;18.640;2023-04-25T07:59:56;11.00;;;8.00;;
67074;SDS011;53990;50.334;18.640;2023-04-25T08:02:23;11.60;;;7.90;;
67074;SDS011;53990;50.334;18.640;2023-04-25T08:04:52;11.60;;;8.00;;
67074;SDS011;53990;50.334;18.640;2023-04-25T08:07:19;9.90;;;7.90;;
67074;SDS011;53990;50.334;18.640;2023-04-25T08:09:47;9.30;;;7.60;;
67074;SDS011;53990;50.334;18.640;2023-04-25T08:12:14;11.40;;;7.40;;
67074;SDS011;53990;50.334;18.640;2023-04-25T08:14:42;10.10;;;7.00;;
67074;SDS011;53990;50.334;18.640;2023-04-25T08:17:09;10.70;;;7.50;;
67074;SDS011;53990;50.334;18.640;2023-04-25T08:19:37;11.30;;;7.80;;
67074;SDS011;53990;50.334;18.640;2023-04-25T08:22:04;12.30;;;7.80;;
67074;SDS011;53990;50.334;18.640;2023-04-25T08:24:31;12.30;;;7.60;;
67074;SDS011;53990;50.334;18.640;2023-04-25T08:26:59;9.90;;;7.30;;
67074;SDS011;53990;50.334;18.640;2023-04-25T08:29:26;10.10;;;7.00;;
67074;SDS011;53990;50.334;18.640;2023-04-25T08:31:53;8.60;;;5.80;;
67074;SDS011;53990;50.334;18.640;2023-04-25T08:34:20;7.30;;;4.60;;
67074;SDS011;53990;50.334;18.640;2023-04-25T08:36:48;7.90;;;4.80;;
67074;SDS011;53990;50.334;18.640;2023-04-25T08:39:15;9.70;;;5.40;;
67074;SDS011;53990;50.334;18.640;2023-04-25T08:41:42;7.10;;;4.80;;
67074;SDS011;53990;50.334;18.640;2023-04-25T08:44:11;7.40;;;4.80;;
67074;SDS011;53990;50.334;18.640;2023-04-25T08:46:39;7.10;;;4.40;;
67074;SDS011;53990;50.334;18.640;2023-04-25T08:49:09;7.80;;;4.90;;
67074;SDS011;53990;50.334;18.640;2023-04-25T08:51:44;6.80;;;4.80;;
67074;SDS011;53990;50.334;18.640;2023-04-25T08:54:14;8.30;;;5.80;;
67074;SDS011;53990;50.334;18.640;2023-04-25T08:56:45;7.70;;;4.60;;
67074;SDS011;53990;50.334;18.640;2023-04-25T08:59:12;5.80;;;4.40;;
67074;SDS011;53990;50.334;18.640;2023-04-25T09:01:40;8.70;;;4.10;;
67074;SDS011;53990;50.334;18.640;2023-04-25T09:04:07;6.70;;;3.90;;
67074;SDS011;53990;50.334;18.640;2023-04-25T09:06:35;7.40;;;4.00;;
67074;SDS011;53990;50.334;18.640;2023-04-25T09:09:04;6.20;;;4.30;;
67074;SDS011;53990;50.334;18.640;2023-04-25T09:11:32;6.30;;;3.90;;
67074;SDS011;53990;50.334;18.640;2023-04-25T09:14:13;6.30;;;3.80;;
67074;SDS011;53990;50.334;18.640;2023-04-25T09:19:27;9.60;;;4.20;;
67074;SDS011;53990;50.334;18.640;2023-04-25T09:21:59;7.00;;;3.90;;
67074;SDS011;53990;50.334;18.640;2023-04-25T09:24:41;5.80;;;3.40;;
67074;SDS011;53990;50.334;18.640;2023-04-25T09:27:11;5.60;;;3.50;;
67074;SDS011;53990;50.334;18.640;2023-04-25T09:29:40;6.50;;;3.70;;
67074;SDS011;53990;50.334;18.640;2023-04-25T09:34:48;5.30;;;3.90;;
67074;SDS011;53990;50.334;18.640;2023-04-25T09:37:20;6.80;;;4.30;;
67074;SDS011;53990;50.334;18.640;2023-04-25T09:39:49;6.00;;;3.90;;
67074;SDS011;53990;50.334;18.640;2023-04-25T09:42:17;7.50;;;4.60;;
67074;SDS011;53990;50.334;18.640;2023-04-25T09:44:46;6.00;;;4.10;;
67074;SDS011;53990;50.334;18.640;2023-04-25T09:47:14;6.20;;;3.90;;
67074;SDS011;53990;50.334;18.640;2023-04-25T09:49:45;6.10;;;3.90;;
67074;SDS011;53990;50.334;18.640;2023-04-25T09:52:20;5.80;;;4.30;;
67074;SDS011;53990;50.334;18.640;2023-04-25T09:54:48;5.70;;;3.60;;
67074;SDS011;53990;50.334;18.640;2023-04-25T09:57:18;7.90;;;3.90;;
67074;SDS011;53990;50.334;18.640;2023-04-25T09:59:51;11.10;;;4.90;;
67074;SDS011;53990;50.334;18.640;2023-04-25T10:02:27;7.00;;;4.10;;
67074;SDS011;53990;50.334;18.640;2023-04-25T10:04:55;4.80;;;3.70;;
67074;SDS011;53990;50.334;18.640;2023-04-25T10:07:24;5.80;;;3.60;;
67074;SDS011;53990;50.334;18.640;2023-04-25T10:10:00;5.20;;;3.60;;
67074;SDS011;53990;50.334;18.640;2023-04-25T10:12:29;5.70;;;3.90;;
67074;SDS011;53990;50.334;18.640;2023-04-25T10:14:58;6.60;;;3.90;;
67074;SDS011;53990;50.334;18.640;2023-04-25T10:17:27;6.90;;;3.50;;
67074;SDS011;53990;50.334;18.640;2023-04-25T10:19:57;5.90;;;3.60;;
67074;SDS011;53990;50.334;18.640;2023-04-25T10:22:34;7.00;;;3.20;;
67074;SDS011;53990;50.334;18.640;2023-04-25T10:25:02;6.20;;;3.30;;
67074;SDS011;53990;50.334;18.640;2023-04-25T10:27:31;4.70;;;3.40;;
67074;SDS011;53990;50.334;18.640;2023-04-25T10:30:03;7.30;;;3.90;;
67074;SDS011;53990;50.334;18.640;2023-04-25T10:32:31;6.50;;;4.40;;
67074;SDS011;53990;50.334;18.640;2023-04-25T10:40:27;5.60;;;3.90;;
67074;SDS011;53990;50.334;18.640;2023-04-25T10:42:55;6.10;;;3.80;;
67074;SDS011;53990;50.334;18.640;2023-04-25T10:45:23;6.00;;;3.80;;
67074;SDS011;53990;50.334;18.640;2023-04-25T10:47:50;5.90;;;3.60;;
67074;SDS011;53990;50.334;18.640;2023-04-25T10:50:17;7.00;;;3.90;;
67074;SDS011;53990;50.334;18.640;2023-04-25T10:52:45;6.00;;;4.00;;
67074;SDS011;53990;50.334;18.640;2023-04-25T10:55:12;6.50;;;3.70;;
67074;SDS011;53990;50.334;18.640;2023-04-25T10:57:42;7.90;;;4.10;;
67074;SDS011;53990;50.334;18.640;2023-04-25T11:00:16;5.50;;;4.00;;
67074;SDS011;53990;50.334;18.640;2023-04-25T11:02:51;5.90;;;4.00;;
67074;SDS011;53990;50.334;18.640;2023-04-25T11:05:33;6.10;;;4.40;;
67074;SDS011;53990;50.334;18.640;2023-04-25T11:08:09;5.50;;;3.90;;
67074;SDS011;53990;50.334;18.640;2023-04-25T11:10:39;6.50;;;4.60;;
67074;SDS011;53990;50.334;18.640;2023-04-25T11:13:07;7.60;;;4.50;;
67074;SDS011;53990;50.334;18.640;2023-04-25T11:15:34;7.30;;;4.20;;
67074;SDS011;53990;50.334;18.640;2023-04-25T11:18:01;7.20;;;4.40;;
67074;SDS011;53990;50.334;18.640;2023-04-25T11:20:29;6.50;;;4.40;;
67074;SDS011;53990;50.334;18.640;2023-04-25T11:22:58;7.00;;;4.80;;
67074;SDS011;53990;50.334;18.640;2023-04-25T11:25:27;6.40;;;4.50;;
67074;SDS011;53990;50.334;18.640;2023-04-25T11:27:57;7.40;;;4.90;;
67074;SDS011;53990;50.334;18.640;2023-04-25T11:30:25;8.20;;;5.00;;
67074;SDS011;53990;50.334;18.640;2023-04-25T11:32:53;7.30;;;5.10;;
67074;SDS011;53990;50.334;18.640;2023-04-25T11:35:20;7.40;;;5.00;;
67074;SDS011;53990;50.334;18.640;2023-04-25T11:37:49;8.20;;;5.30;;
67074;SDS011;53990;50.334;18.640;2023-04-25T11:40:17;9.10;;;4.70;;
67074;SDS011;53990;50.334;18.640;2023-04-25T11:42:46;7.00;;;4.80;;
67074;SDS011;53990;50.334;18.640;2023-04-25T11:45:14;5.40;;;4.40;;
67074;SDS011;53990;50.334;18.640;2023-04-25T11:47:42;9.90;;;5.00;;
67074;SDS011;53990;50.334;18.640;2023-04-25T11:50:09;8.50;;;5.50;;
67074;SDS011;53990;50.334;18.640;2023-04-25T11:52:40;10.40;;;6.90;;
67074;SDS011;53990;50.334;18.640;2023-04-25T11:55:16;8.40;;;5.10;;
67074;SDS011;53990;50.334;18.640;2023-04-25T11:57:45;6.70;;;4.70;;
67074;SDS011;53990;50.334;18.640;2023-04-25T12:00:14;9.20;;;4.00;;
67074;SDS011;53990;50.334;18.640;2023-04-25T12:02:45;7.00;;;4.50;;
67074;SDS011;53990;50.334;18.640;2023-04-25T12:05:14;8.90;;;4.40;;
67074;SDS011;53990;50.334;18.640;2023-04-25T12:07:42;8.60;;;4.90;;
67074;SDS011;53990;50.334;18.640;2023-04-25T12:10:11;7.20;;;5.20;;
67074;SDS011;53990;50.334;18.640;2023-04-25T12:12:43;7.70;;;5.10;;
67074;SDS011;53990;50.334;18.640;2023-04-25T12:15:16;10.20;;;5.20;;
67074;SDS011;53990;50.334;18.640;2023-04-25T12:17:47;5.30;;;4.50;;
67074;SDS011;53990;50.334;18.640;2023-04-25T12:20:20;6.20;;;4.80;;
67074;SDS011;53990;50.334;18.640;2023-04-25T12:22:48;6.70;;;4.90;;
67074;SDS011;53990;50.334;18.640;2023-04-25T12:25:41;9.10;;;5.50;;
67074;SDS011;53990;50.334;18.640;2023-04-25T12:28:17;10.20;;;5.20;;
67074;SDS011;53990;50.334;18.640;2023-04-25T12:31:01;9.90;;;5.70;;
67074;SDS011;53990;50.334;18.640;2023-04-25T12:33:31;8.50;;;5.40;;
67074;SDS011;53990;50.334;18.640;2023-04-25T12:36:00;6.60;;;5.10;;
67074;SDS011;53990;50.334;18.640;2023-04-25T12:38:36;10.30;;;5.90;;
67074;SDS011;53990;50.334;18.640;2023-04-25T12:41:04;8.30;;;5.60;;
67074;SDS011;53990;50.334;18.640;2023-04-25T12:43:32;7.10;;;5.50;;
67074;SDS011;53990;50.334;18.640;2023-04-25T12:45:59;7.60;;;5.20;;
67074;SDS011;53990;50.334;18.640;2023-04-25T12:48:27;8.80;;;5.90;;
67074;SDS011;53990;50.334;18.640;2023-04-25T12:50:54;8.50;;;5.30;;
67074;SDS011;53990;50.334;18.640;2023-04-25T12:53:22;8.50;;;5.60;;
67074;SDS011;53990;50.334;18.640;2023-04-25T12:55:51;7.10;;;5.20;;
67074;SDS011;53990;50.334;18.640;2023-04-25T12:58:18;6.50;;;4.80;;
67074;SDS011;53990;50.334;18.640;2023-04-25T13:00:46;6.10;;;4.70;;
67074;SDS011;53990;50.334;18.640;2023-04-25T13:03:14;8.90;;;6.00;;
67074;SDS011;53990;50.334;18.640;2023-04-25T13:05:41;6.60;;;4.60;;
67074;SDS011;53990;50.334;18.640;2023-04-25T13:08:09;6.50;;;5.00;;
67074;SDS011;53990;50.334;18.640;2023-04-25T13:10:36;8.10;;;4.60;;
67074;SDS011;53990;50.334;18.640;2023-04-25T13:13:06;6.90;;;4.20;;
67074;SDS011;53990;50.334;18.640;2023-04-25T13:15:33;5.90;;;4.50;;
67074;SDS011;53990;50.334;18.640;2023-04-25T13:18:00;6.30;;;4.60;;
67074;SDS011;53990;50.334;18.640;2023-04-25T13:20:28;6.00;;;4.20;;
67074;SDS011;53990;50.334;18.640;2023-04-25T13:22:56;7.70;;;4.60;;
67074;SDS011;53990;50.334;18.640;2023-04-25T13:25:24;6.40;;;4.20;;
67074;SDS011;53990;50.334;18.640;2023-04-25T13:27:51;62.00;;;7.40;;
67074;SDS011;53990;50.334;18.640;2023-04-25T13:30:21;7.10;;;4.20;;
67074;SDS011;53990;50.334;18.640;2023-04-25T13:32:48;10.10;;;4.00;;
67074;SDS011;53990;50.334;18.640;2023-04-25T13:35:34;7.00;;;3.90;;
67074;SDS011;53990;50.334;18.640;2023-04-25T13:38:02;8.00;;;4.40;;
67074;SDS011;53990;50.334;18.640;2023-04-25T13:40:30;6.90;;;4.30;;
67074;SDS011;53990;50.334;18.640;2023-04-25T13:42:59;6.60;;;4.10;;
67074;SDS011;53990;50.334;18.640;2023-04-25T13:45:29;6.30;;;4.40;;
67074;SDS011;53990;50.334;18.640;2023-04-25T13:47:56;7.30;;;4.70;;
67074;SDS011;53990;50.334;18.640;2023-04-25T13:50:24;6.10;;;4.40;;
67074;SDS011;53990;50.334;18.640;2023-04-25T13:52:54;8.70;;;5.30;;
67074;SDS011;53990;50.334;18.640;2023-04-25T13:55:21;6.50;;;4.60;;
67074;SDS011;53990;50.334;18.640;2023-04-25T13:57:48;6.30;;;4.00;;
67074;SDS011;53990;50.334;18.640;2023-04-25T14:00:16;5.50;;;3.90;;
67074;SDS011;53990;50.334;18.640;2023-04-25T14:02:44;5.40;;;3.60;;
67074;SDS011;53990;50.334;18.640;2023-04-25T14:05:12;5.50;;;3.80;;
67074;SDS011;53990;50.334;18.640;2023-04-25T14:07:41;6.10;;;3.40;;
67074;SDS011;53990;50.334;18.640;2023-04-25T14:10:09;7.00;;;3.80;;
67074;SDS011;53990;50.334;18.640;2023-04-25T14:12:36;8.70;;;3.80;;
67074;SDS011;53990;50.334;18.640;2023-04-25T14:15:04;5.40;;;3.40;;
67074;SDS011;53990;50.334;18.640;2023-04-25T14:17:32;4.50;;;3.20;;
67074;SDS011;53990;50.334;18.640;2023-04-25T14:19:59;5.20;;;3.20;;
67074;SDS011;53990;50.334;18.640;2023-04-25T14:22:28;7.50;;;3.50;;
67074;SDS011;53990;50.334;18.640;2023-04-25T14:25:00;6.30;;;3.60;;
67074;SDS011;53990;50.334;18.640;2023-04-25T14:27:28;10.50;;;4.10;;
67074;SDS011;53990;50.334;18.640;2023-04-25T14:30:05;6.70;;;3.70;;
67074;SDS011;53990;50.334;18.640;2023-04-25T14:32:33;6.50;;;3.50;;
67074;SDS011;53990;50.334;18.640;2023-04-25T14:35:04;6.30;;;3.60;;
67074;SDS011;53990;50.334;18.640;2023-04-25T14:37:38;7.20;;;4.10;;
67074;SDS011;53990;50.334;18.640;2023-04-25T14:40:10;5.50;;;3.80;;
67074;SDS011;53990;50.334;18.640;2023-04-25T14:42:46;6.80;;;4.30;;
67074;SDS011;53990;50.334;18.640;2023-04-25T14:45:14;7.70;;;4.60;;
67074;SDS011;53990;50.334;18.640;2023-04-25T14:47:44;6.90;;;4.10;;
67074;SDS011;53990;50.334;18.640;2023-04-25T14:50:17;6.20;;;4.20;;